Time;durP1;ratioP1;P1;durP2;ratioP2;P2;SDS_P1;SDS_P2;PMS_P1;PMS_P2;Temp;Humidity;BMP_temperature;BMP_pressure;BME280_temperature;BME280_humidity;BME280_pressure;Samples;Min_cycle;Max_cycle;Signal;HPM_P1;HPM_P2
2023/08/08 00:01:31;;;;;;;;;;;;;;;17.57;44.01;100371.16;5096900;28;1236;-60
2023/08/08 00:03:56;;;;;;;;;;;;;;;17.55;44.04;100372.56;5096734;28;1030;-61
2023/08/08 00:06:22;;;;;;;;;;;;;;;17.76;44.02;100386.91;5096667;28;1062;-60
2023/08/08 00:08:47;;;;;;;;;;;;;;;18.10;45.18;100389.63;5096986;28;1081;-60
2023/08/08 00:11:13;;;;;;;;;;;;;;;17.81;45.05;100386.88;5095865;28;906;-60
2023/08/08 00:13:38;;;;;;;;;;;;;;;17.72;44.80;100388.63;5096958;28;1011;-60
2023/08/08 00:16:04;;;;;;;;;;;;;;;17.67;44.59;100377.66;5096502;28;1150;-60
2023/08/08 00:18:30;;;;;;;;;;;;;;;17.61;44.42;100374.97;5096514;28;1984;-60
2023/08/08 00:20:55;;;;;;;;;;;;;;;17.63;44.03;100374.69;5096640;28;1203;-58
2023/08/08 00:23:21;;;;;;;;;;;;;;;17.61;43.83;100376.88;5096109;28;898;-58
2023/08/08 00:25:50;;;;;;;;;;;;;;;17.49;43.82;100371.78;5096534;28;995;-58
2023/08/08 00:28:16;;;;;;;;;;;;;;;17.55;43.79;100378.06;5096140;28;1081;-59
2023/08/08 00:30:42;;;;;;;;;;;;;;;18.33;44.63;100381.63;5078342;28;1261;-58
2023/08/08 00:33:07;;;;;;;;;;;;;;;18.01;45.19;100380.34;5096136;28;1122;-58
2023/08/08 00:35:33;;;;;;;;;;;;;;;17.78;44.91;100377.28;5095786;28;897;-58
2023/08/08 00:37:58;;;;;;;;;;;;;;;17.71;44.63;100375.97;5096487;28;1901;-59
2023/08/08 00:40:24;;;;;;;;;;;;;;;17.72;44.31;100378.44;5078285;28;1129;-58
2023/08/08 00:42:49;;;;;;;;;;;;;;;17.61;44.21;100374.97;5096414;28;1221;-59
2023/08/08 00:45:15;;;;;;;;;;;;;;;17.62;43.79;100375.78;5096101;28;1045;-59
2023/08/08 00:47:41;;;;;;;;;;;;;;;17.52;43.98;100376.72;5095860;28;964;-59
2023/08/08 00:50:07;;;;;;;;;;;;;;;17.55;43.86;100380.81;5077969;28;1077;-58
2023/08/08 00:52:32;;;;;;;;;;;;;;;17.50;43.83;100375.34;5096280;28;1030;-58
2023/08/08 00:54:59;;;;;;;;;;;;;;;17.47;43.88;100384.19;5077776;28;1078;-58
2023/08/08 00:57:25;;;;;;;;;;;;;;;17.51;43.64;100375.06;5096463;28;1166;-59
2023/08/08 00:59:51;;;;;;;;;;;;;;;18.15;45.50;100385.16;5077304;28;2047;-61
2023/08/08 01:02:16;;;;;;;;;;;;;;;17.87;45.58;100388.44;5096571;28;1157;-61
2023/08/08 01:04:43;;;;;;;;;;;;;;;17.72;45.08;100383.91;5078061;28;1170;-59
2023/08/08 01:07:25;;;;;;;;;;;;;;;17.73;44.62;100388.31;5086792;28;1315;-60
2023/08/08 01:09:51;;;;;;;;;;;;;;;17.68;44.20;100385.63;5076102;28;1095;-59
2023/08/08 01:12:16;;;;;;;;;;;;;;;17.64;44.01;100384.56;5096107;28;1173;-60
2023/08/08 01:14:42;;;;;;;;;;;;;;;18.59;44.90;100398.63;5077761;28;1111;-59
2023/08/08 01:17:07;;;;;;;;;;;;;;;18.05;45.80;100394.34;5077918;28;1360;-60
2023/08/08 01:19:34;;;;;;;;;;;;;;;17.90;45.27;100398.06;5077821;28;1925;-58
2023/08/08 01:22:04;;;;;;;;;;;;;;;17.83;44.89;100400.34;5079730;28;1052;-60
2023/08/08 01:24:32;;;;;;;;;;;;;;;17.71;44.53;100396.06;5081364;28;1244;-59
2023/08/08 01:26:58;;;;;;;;;;;;;;;17.71;44.33;100387.81;5082228;28;1234;-59
2023/08/08 01:29:23;;;;;;;;;;;;;;;17.64;44.16;100381.81;5099818;28;1403;-59
2023/08/08 01:31:50;;;;;;;;;;;;;;;17.72;43.86;100383.91;5099678;28;1018;-59
2023/08/08 01:34:15;;;;;;;;;;;;;;;17.52;44.22;100381.41;5099536;28;1224;-59
2023/08/08 01:36:47;;;;;;;;;;;;;;;17.59;43.80;100379.94;5081309;28;1635;-59
2023/08/08 01:39:13;;;;;;;;;;;;;;;17.55;43.83;100380.81;5099827;28;1989;-59
2023/08/08 01:41:39;;;;;;;;;;;;;;;17.39;43.92;100380.13;5081819;28;1158;-58
2023/08/08 01:44:06;;;;;;;;;;;;;;;17.52;43.65;100373.16;5099614;28;1054;-59
2023/08/08 01:46:31;;;;;;;;;;;;;;;17.43;43.82;100375.69;5099091;28;1066;-58
2023/08/08 01:48:58;;;;;;;;;;;;;;;17.45;43.72;100374.28;5081018;28;1102;-58
2023/08/08 01:51:25;;;;;;;;;;;;;;;17.45;43.71;100374.28;5098995;28;1161;-58
2023/08/08 01:53:51;;;;;;;;;;;;;;;18.17;44.34;100388.44;5099299;28;1126;-59
2023/08/08 01:56:16;;;;;;;;;;;;;;;17.83;45.15;100384.66;5099286;28;1208;-59
2023/08/08 01:58:42;;;;;;;;;;;;;;;17.64;45.04;100381.81;5080762;28;1968;-59
2023/08/08 02:01:07;;;;;;;;;;;;;;;17.59;44.77;100384.63;5080552;28;1232;-58
2023/08/08 02:03:33;;;;;;;;;;;;;;;17.62;44.55;100378.53;5067626;28;1221;-59
2023/08/08 02:05:58;;;;;;;;;;;;;;;17.58;44.34;100375.53;5098401;28;1200;-59
2023/08/08 02:08:24;;;;;;;;;;;;;;;17.56;43.98;100380.53;5098332;28;1051;-57
2023/08/08 02:10:50;;;;;;;;;;;;;;;17.56;43.86;100379.72;5098779;28;1161;-56
2023/08/08 02:13:15;;;;;;;;;;;;;;;17.44;43.79;100380.09;5098473;28;1182;-60
2023/08/08 02:15:41;;;;;;;;;;;;;;;17.44;43.96;100372.66;5098995;28;1181;-61
2023/08/08 02:18:08;;;;;;;;;;;;;;;17.46;43.78;100369.63;5080481;28;1966;-60
2023/08/08 02:20:34;;;;;;;;;;;;;;;17.48;43.57;100363.84;5080831;28;1075;-61
2023/08/08 02:22:59;;;;;;;;;;;;;;;17.41;43.80;100367.72;5066790;28;1362;-60
2023/08/08 02:25:25;;;;;;;;;;;;;;;17.39;43.76;100367.22;5098740;28;1101;-60
2023/08/08 02:27:50;;;;;;;;;;;;;;;18.17;44.71;100372.72;5098630;28;1109;-60
2023/08/08 02:30:16;;;;;;;;;;;;;;;17.72;45.13;100372.13;5099011;28;1102;-60
2023/08/08 02:32:43;;;;;;;;;;;;;;;17.58;44.99;100378.28;5080520;28;1182;-60
2023/08/08 02:35:08;;;;;;;;;;;;;;;17.68;44.79;100390.31;5098564;28;1121;-60
2023/08/08 02:37:33;;;;;;;;;;;;;;;18.07;45.96;100401.19;5080023;28;1077;-61
2023/08/08 02:39:59;;;;;;;;;;;;;;;17.87;45.64;100401.41;5098314;28;1905;-61
2023/08/08 02:42:25;;;;;;;;;;;;;;;17.74;45.21;100420.22;5098338;28;1022;-60
2023/08/08 02:44:51;;;;;;;;;;;;;;;17.73;44.71;100412.25;5098063;28;1189;-62
2023/08/08 02:47:17;;;;;;;;;;;;;;;17.62;44.62;100408.78;5097589;28;1137;-61
2023/08/08 02:49:43;;;;;;;;;;;;;;;17.55;44.34;100400.06;5079950;28;1419;-61
2023/08/08 02:52:09;;;;;;;;;;;;;;;17.55;44.18;100406.38;5098093;28;1081;-62
2023/08/08 02:54:35;;;;;;;;;;;;;;;17.54;44.08;100415.72;5080242;28;1270;-62
2023/08/08 02:57:01;;;;;;;;;;;;;;;17.52;43.86;100411.63;5098280;28;1077;-61
2023/08/08 02:59:27;;;;;;;;;;;;;;;17.45;43.98;100417.47;5079675;28;1918;-61
2023/08/08 03:01:53;;;;;;;;;;;;;;;17.49;43.73;100425.94;5079684;28;1185;-61
2023/08/08 03:04:18;;;;;;;;;;;;;;;17.55;43.62;100422.06;5098275;28;1142;-62
2023/08/08 03:06:44;;;;;;;;;;;;;;;17.39;43.82;100432.34;5079913;28;1205;-61
2023/08/08 03:09:10;;;;;;;;;;;;;;;17.48;43.71;100424.31;5097567;28;1015;-62
2023/08/08 03:11:41;;;;;;;;;;;;;;;17.38;43.87;100430.72;5079285;28;1253;-61
2023/08/08 03:14:08;;;;;;;;;;;;;;;17.41;43.45;100439.19;5079552;28;1214;-62
2023/08/08 03:16:34;;;;;;;;;;;;;;;17.41;43.60;100436.44;5079775;28;1320;-61
2023/08/08 03:19:02;;;;;;;;;;;;;;;17.34;43.72;100446.94;5079403;28;1979;-59
2023/08/08 03:21:28;;;;;;;;;;;;;;;17.30;43.66;100451.38;5080076;28;2544;-59
2023/08/08 03:23:53;;;;;;;;;;;;;;;17.28;43.58;100445.34;5078171;28;2069;-60
2023/08/08 03:26:19;;;;;;;;;;;;;;;17.99;45.06;100447.78;5078543;28;2118;-59
2023/08/08 03:28:50;;;;;;;;;;;;;;;17.64;45.36;100464.28;5078753;28;2203;-59
2023/08/08 03:31:20;;;;;;;;;;;;;;;17.56;44.97;100454.75;5078183;28;1939;-59
2023/08/08 03:33:46;;;;;;;;;;;;;;;17.49;44.62;100457.00;5078755;28;2087;-59
2023/08/08 03:36:12;;;;;;;;;;;;;;;18.41;45.29;100449.78;5087592;28;2049;-59
2023/08/08 03:38:38;;;;;;;;;;;;;;;17.83;46.07;100455.34;5096637;28;1973;-59
2023/08/08 03:41:03;;;;;;;;;;;;;;;17.70;45.45;100457.66;5078654;28;1528;-56
2023/08/08 03:43:29;;;;;;;;;;;;;;;17.62;45.01;100450.84;5096869;28;1085;-59
2023/08/08 03:45:55;;;;;;;;;;;;;;;17.53;44.60;100452.59;5084446;28;1194;-59
2023/08/08 03:48:21;;;;;;;;;;;;;;;17.58;44.40;100452.50;5082236;28;1141;-51
2023/08/08 03:50:46;;;;;;;;;;;;;;;17.45;44.26;100450.44;5096529;28;1166;-59
2023/08/08 03:53:12;;;;;;;;;;;;;;;17.48;44.32;100460.88;5096504;28;1145;-62
2023/08/08 03:55:37;;;;;;;;;;;;;;;17.44;44.24;100468.84;5077190;28;1558;-59
2023/08/08 03:58:04;;;;;;;;;;;;;;;17.45;44.01;100466.94;5095607;28;1986;-59
2023/08/08 04:00:30;;;;;;;;;;;;;;;17.48;43.96;100465.56;5077842;28;1222;-58
2023/08/08 04:02:55;;;;;;;;;;;;;;;17.38;43.97;100471.94;5096548;28;1240;-57
2023/08/08 04:05:21;;;;;;;;;;;;;;;17.27;44.30;100477.50;5078106;28;1544;-58
2023/08/08 04:07:46;;;;;;;;;;;;;;;17.34;43.89;100492.84;5095591;28;2513;-58
2023/08/08 04:10:13;;;;;;;;;;;;;;;17.35;43.87;100503.56;5095954;28;1177;-58
2023/08/08 04:12:38;;;;;;;;;;;;;;;18.15;45.20;100500.72;5077695;28;1470;-58
2023/08/08 04:15:04;;;;;;;;;;;;;;;17.67;45.79;100504.16;5095431;28;1130;-57
2023/08/08 04:17:30;;;;;;;;;;;;;;;17.71;44.89;100503.31;5078042;28;1138;-56
2023/08/08 04:19:56;;;;;;;;;;;;;;;17.56;44.90;100501.47;5096467;28;1909;-58
2023/08/08 04:22:21;;;;;;;;;;;;;;;17.53;44.71;100512.22;5096004;28;1097;-56
2023/08/08 04:24:47;;;;;;;;;;;;;;;17.50;44.31;100521.88;5095291;28;998;-56
2023/08/08 04:27:12;;;;;;;;;;;;;;;17.48;44.29;100515.03;5096488;28;1086;-58
2023/08/08 04:29:38;;;;;;;;;;;;;;;18.11;44.78;100517.81;5095437;28;1126;-59
2023/08/08 04:32:03;;;;;;;;;;;;;;;18.21;45.91;100527.06;5096340;28;1105;-50
2023/08/08 04:34:29;;;;;;;;;;;;;;;17.85;45.95;100532.88;5095719;28;1114;-57
2023/08/08 04:36:54;;;;;;;;;;;;;;;17.76;45.22;100522.50;5095272;28;2323;-60
2023/08/08 04:39:20;;;;;;;;;;;;;;;17.75;44.98;100520.03;5095860;28;1984;-58
2023/08/08 04:41:45;;;;;;;;;;;;;;;17.64;44.93;100534.97;5095822;28;1337;-58
2023/08/08 04:44:11;;;;;;;;;;;;;;;17.60;44.66;100537.50;5095803;28;1152;-57
2023/08/08 04:46:36;;;;;;;;;;;;;;;18.33;45.56;100535.75;5096299;28;1046;-61
2023/08/08 04:49:02;;;;;;;;;;;;;;;17.61;49.26;100539.09;5094893;28;1177;-57
2023/08/08 04:51:27;;;;;;;;;;;;;;;18.09;47.91;100544.81;5095928;28;1010;-54
2023/08/08 04:53:53;;;;;;;;;;;;;;;18.08;48.22;100554.16;5095494;28;1114;-54
2023/08/08 04:56:18;;;;;;;;;;;;;;;18.05;48.53;100552.00;5096342;28;1184;-57
2023/08/08 04:58:44;;;;;;;;;;;;;;;17.97;48.91;100558.13;5099685;28;1987;-57
2023/08/08 05:01:14;;;;;;;;;;;;;;;17.86;49.10;100559.28;5086491;28;1245;-59
2023/08/08 05:03:39;;;;;;;;;;;;;;;17.83;49.42;100557.09;5099237;28;1315;-59
2023/08/08 05:06:05;;;;;;;;;;;;;;;17.81;49.45;100562.06;5099076;28;2260;-59
2023/08/08 05:08:30;;;;;;;;;;;;;;;17.66;49.76;100561.06;5099371;28;1364;-60
2023/08/08 05:10:56;;;;;;;;;;;;;;;17.69;49.97;100554.19;5099721;28;1268;-58
2023/08/08 05:13:21;;;;;;;;;;;;;;;17.64;50.06;100546.78;5098976;28;995;-59
2023/08/08 05:15:47;;;;;;;;;;;;;;;17.67;50.29;100556.38;5099500;28;1098;-58
2023/08/08 05:18:12;;;;;;;;;;;;;;;17.58;50.51;100553.44;5099299;28;1973;-57
2023/08/08 05:20:38;;;;;;;;;;;;;;;17.53;50.74;100561.72;5099360;28;1346;-57
2023/08/08 05:23:04;;;;;;;;;;;;;;;17.56;50.56;100572.97;5098857;28;1303;-57
2023/08/08 05:25:29;;;;;;;;;;;;;;;17.48;50.93;100575.50;5095439;28;1015;-57
2023/08/08 05:27:55;;;;;;;;;;;;;;;17.49;50.77;100571.63;5080971;28;1320;-57
2023/08/08 05:30:21;;;;;;;;;;;;;;;17.43;50.98;100593.66;5099169;28;1299;-58
2023/08/08 05:32:46;;;;;;;;;;;;;;;17.39;51.06;100594.50;5098418;28;1311;-57
2023/08/08 05:35:12;;;;;;;;;;;;;;;17.32;51.09;100594.00;5099280;28;1058;-58
2023/08/08 05:37:38;;;;;;;;;;;;;;;17.34;51.58;100597.28;5092206;28;2421;-56
2023/08/08 05:40:06;;;;;;;;;;;;;;;17.34;51.39;100594.53;5098882;28;1969;-56
2023/08/08 05:42:31;;;;;;;;;;;;;;;17.29;51.53;100595.38;5080771;28;1253;-57
2023/08/08 05:44:57;;;;;;;;;;;;;;;17.23;51.65;100602.81;5098928;28;1006;-56
2023/08/08 05:47:22;;;;;;;;;;;;;;;17.23;51.73;100602.00;5098878;28;1093;-58
2023/08/08 05:49:48;;;;;;;;;;;;;;;17.22;51.97;100611.34;5096669;28;1288;-59
2023/08/08 05:52:13;;;;;;;;;;;;;;;17.18;51.82;100615.75;5097603;28;1149;-51
2023/08/08 05:54:39;;;;;;;;;;;;;;;17.23;51.74;100618.50;5097524;28;1312;-53
2023/08/08 05:57:04;;;;;;;;;;;;;;;17.17;51.87;100630.63;5097652;28;1214;-52
2023/08/08 05:59:30;;;;;;;;;;;;;;;17.10;51.98;100631.72;5097586;28;1909;-52
2023/08/08 06:01:55;;;;;;;;;;;;;;;17.10;52.26;100648.22;5097255;28;879;-49
2023/08/08 06:04:21;;;;;;;;;;;;;;;17.12;51.87;100656.19;5097262;28;1142;-54
2023/08/08 06:06:48;;;;;;;;;;;;;;;17.13;52.04;100674.31;5091041;28;1820;-55
2023/08/08 06:09:14;;;;;;;;;;;;;;;17.08;52.35;100677.91;5090602;28;1018;-53
2023/08/08 06:11:40;;;;;;;;;;;;;;;16.99;52.32;100674.09;5097604;28;1118;-52
2023/08/08 06:14:05;;;;;;;;;;;;;;;17.02;52.14;100690.00;5096452;28;854;-51
2023/08/08 06:16:31;;;;;;;;;;;;;;;17.03;52.38;100699.09;5096999;28;1099;-53
2023/08/08 06:18:56;;;;;;;;;;;;;;;16.99;52.53;100695.25;5097444;28;1974;-57
2023/08/08 06:21:22;;;;;;;;;;;;;;;16.95;52.58;100691.41;5096696;28;1087;-55
2023/08/08 06:23:49;;;;;;;;;;;;;;;16.92;52.53;100707.31;5096914;28;1043;-54
2023/08/08 06:26:14;;;;;;;;;;;;;;;16.98;52.19;100694.41;5096687;28;1200;-56
2023/08/08 06:28:40;;;;;;;;;;;;;;;16.95;52.29;100686.72;5097257;28;1031;-56
2023/08/08 06:31:05;;;;;;;;;;;;;;;16.98;52.38;100694.41;5096714;28;1046;-58
2023/08/08 06:33:31;;;;;;;;;;;;;;;16.95;52.21;100705.13;5096754;28;1102;-57
2023/08/08 06:35:56;;;;;;;;;;;;;;;17.01;52.14;100707.59;5097217;28;1209;-60
2023/08/08 06:38:22;;;;;;;;;;;;;;;16.97;52.28;100708.41;5096565;28;2483;-60
2023/08/08 06:40:48;;;;;;;;;;;;;;;16.92;52.15;100707.31;5096188;28;1351;-61
2023/08/08 06:43:13;;;;;;;;;;;;;;;16.91;52.45;100718.59;5096494;28;1276;-57
2023/08/08 06:45:39;;;;;;;;;;;;;;;16.81;52.69;100716.66;5096861;28;1327;-59
2023/08/08 06:48:04;;;;;;;;;;;;;;;16.78;52.57;100711.72;5096953;28;1027;-57
2023/08/08 06:50:30;;;;;;;;;;;;;;;16.81;52.60;100711.16;5048877;28;1348493;-54
2023/08/08 06:52:55;;;;;;;;;;;;;;;16.77;52.62;100716.41;5097556;28;1308;-54
2023/08/08 06:55:21;;;;;;;;;;;;;;;16.79;52.26;100729.00;5097568;28;1288;-56
2023/08/08 06:57:46;;;;;;;;;;;;;;;16.74;52.55;100724.34;5097556;28;1905;-54
2023/08/08 07:00:13;;;;;;;;;;;;;;;16.77;52.62;100729.28;5097286;28;1225;-62
2023/08/08 07:02:39;;;;;;;;;;;;;;;16.74;52.57;100732.59;5097621;28;1180;-54
2023/08/08 07:05:04;;;;;;;;;;;;;;;16.74;52.55;100730.66;5097378;28;1264;-57
2023/08/08 07:07:32;;;;;;;;;;;;;;;16.71;52.68;100744.94;5091185;28;2432;-58
2023/08/08 07:09:58;;;;;;;;;;;;;;;16.82;53.24;100743.03;5097239;28;1106;-57
2023/08/08 07:12:23;;;;;;;;;;;;;;;16.67;53.48;100748.53;5096038;28;1304;-55
2023/08/08 07:14:49;;;;;;;;;;;;;;;16.64;54.06;100736.16;5088243;28;1343;-58
2023/08/08 07:17:14;;;;;;;;;;;;;;;16.75;53.70;100731.50;5091135;28;1402;-59
2023/08/08 07:19:41;;;;;;;;;;;;;;;16.77;53.74;100737.53;5096644;28;1909;-55
2023/08/08 07:22:06;;;;;;;;;;;;;;;16.72;53.55;100743.84;5097458;28;1110;-54
2023/08/08 07:24:32;;;;;;;;;;;;;;;16.73;53.66;100740.00;5097395;28;1097;-55
2023/08/08 07:26:58;;;;;;;;;;;;;;;16.73;53.69;100728.19;5097238;28;1082;-57
2023/08/08 07:29:23;;;;;;;;;;;;;;;16.76;53.52;100736.72;5097549;28;1133;-56
2023/08/08 07:31:49;;;;;;;;;;;;;;;16.73;53.28;100753.75;5097656;28;1200;-56
2023/08/08 07:34:14;;;;;;;;;;;;;;;16.73;53.40;100753.75;5097231;28;990;-54
2023/08/08 07:36:40;;;;;;;;;;;;;;;16.67;53.35;100756.75;5095319;28;1073;-55
2023/08/08 07:39:05;;;;;;;;;;;;;;;16.77;53.62;100756.75;5088647;28;1974;-56
2023/08/08 07:41:30;;;;;;;;;;;;;;;16.68;53.35;100755.66;5097304;28;1379;-55
2023/08/08 07:43:56;;;;;;;;;;;;;;;16.70;53.41;100767.19;5100236;28;1340;-55
2023/08/08 07:46:22;;;;;;;;;;;;;;;16.65;53.34;100772.66;5097439;28;1034;-55
2023/08/08 07:48:48;;;;;;;;;;;;;;;16.67;53.07;100776.78;5078642;28;1089;-54
2023/08/08 07:51:13;;;;;;;;;;;;;;;16.66;53.21;100774.31;5097629;28;1098;-55
2023/08/08 07:53:38;;;;;;;;;;;;;;;16.65;53.14;100781.75;5097169;28;1339;-57
2023/08/08 07:56:04;;;;;;;;;;;;;;;16.63;53.17;100775.69;5097257;28;1374;-55
2023/08/08 07:58:31;;;;;;;;;;;;;;;16.64;53.12;100774.59;5097284;28;1913;-53
2023/08/08 08:00:56;;;;;;;;;;;;;;;16.68;52.82;100772.94;5097112;28;1010;-53
2023/08/08 08:03:22;;;;;;;;;;;;;;;16.58;53.17;100756.50;5095686;28;1130;-51
2023/08/08 08:05:48;;;;;;;;;;;;;;;16.62;53.17;100756.75;5093835;28;1078;-47
2023/08/08 08:08:14;;;;;;;;;;;;;;;16.60;53.10;100748.78;5096861;28;1398;-49
2023/08/08 08:10:41;;;;;;;;;;;;;;;16.59;52.99;100766.34;5097011;28;1303;-43
2023/08/08 08:13:07;;;;;;;;;;;;;;;16.62;53.09;100756.75;5094493;28;1260;-48
2023/08/08 08:15:33;;;;;;;;;;;;;;;16.50;53.23;100770.75;5096245;28;1303;-46
2023/08/08 08:17:59;;;;;;;;;;;;;;;16.49;53.30;100758.94;5096247;28;1918;-53
2023/08/08 08:20:25;;;;;;;;;;;;;;;16.54;53.20;100767.19;5096734;28;1387;-53
2023/08/08 08:22:50;;;;;;;;;;;;;;;16.56;53.15;100770.50;5096198;28;1098;-51
2023/08/08 08:25:16;;;;;;;;;;;;;;;16.51;53.10;100775.13;5096836;28;1117;-50
2023/08/08 08:27:41;;;;;;;;;;;;;;;16.56;53.19;100767.75;5094959;28;1003;-50
2023/08/08 08:30:09;;;;;;;;;;;;;;;17.50;53.21;100761.06;5085836;28;1030;-53
2023/08/08 08:32:35;;;;;;;;;;;;;;;17.25;53.80;100764.66;5082161;28;1014;-48
2023/08/08 08:35:04;;;;;;;;;;;;;;;16.98;53.96;100771.31;5096399;28;1062;-51
2023/08/08 08:37:30;;;;;;;;;;;;;;;16.87;53.97;100767.75;5096269;28;1120;-48
2023/08/08 08:39:55;;;;;;;;;;;;;;;16.84;53.97;100764.72;5096669;28;1898;-49
2023/08/08 08:42:21;;;;;;;;;;;;;;;16.77;53.89;100765.81;5096638;28;1086;-51
2023/08/08 08:44:46;;;;;;;;;;;;;;;16.76;53.61;100772.41;5078674;28;1184;-51
2023/08/08 08:47:12;;;;;;;;;;;;;;;16.74;53.63;100768.28;5096913;28;1111;-55
2023/08/08 08:49:38;;;;;;;;;;;;;;;16.82;53.15;100758.69;5095526;28;1233;-55
2023/08/08 08:52:04;;;;;;;;;;;;;;;16.71;53.32;100755.94;5095329;28;1098;-54
2023/08/08 08:54:30;;;;;;;;;;;;;;;16.67;53.14;100743.84;5066616;28;1208;-50
2023/08/08 08:56:56;;;;;;;;;;;;;;;16.69;53.34;100751.81;5096690;28;1105;-51
2023/08/08 08:59:21;;;;;;;;;;;;;;;16.69;53.06;100747.16;5096013;28;1977;-47
2023/08/08 09:01:47;;;;;;;;;;;;;;;16.63;53.27;100753.72;5096501;28;1054;-49
2023/08/08 09:04:13;;;;;;;;;;;;;;;16.59;53.38;100750.72;5095996;28;1136;-52
2023/08/08 09:06:38;;;;;;;;;;;;;;;16.58;53.17;100753.75;5078123;28;1059;-56
2023/08/08 09:09:04;;;;;;;;;;;;;;;16.60;53.13;100770.75;5096655;28;1145;-55
2023/08/08 09:11:30;;;;;;;;;;;;;;;16.62;52.99;100767.72;5082878;28;1141;-51
2023/08/08 09:13:55;;;;;;;;;;;;;;;16.56;53.13;100759.50;5077919;28;1062;-52
2023/08/08 09:16:21;;;;;;;;;;;;;;;16.49;53.27;100780.91;5096217;28;1181;-52
2023/08/08 09:18:46;;;;;;;;;;;;;;;16.56;52.93;100780.63;5096323;28;1918;-56
2023/08/08 09:21:12;;;;;;;;;;;;;;;16.58;53.00;100781.19;5096571;28;1240;-56
2023/08/08 09:23:38;;;;;;;;;;;;;;;16.53;53.06;100786.69;5096338;28;1217;-51
2023/08/08 09:26:04;;;;;;;;;;;;;;;16.47;53.22;100776.78;5095797;28;1457;-55
2023/08/08 09:28:30;;;;;;;;;;;;;;;17.18;53.36;100777.88;5096574;28;1043;-53
2023/08/08 09:30:55;;;;;;;;;;;;;;;17.62;53.67;100777.22;5095852;28;1066;-53
2023/08/08 09:33:21;;;;;;;;;;;;;;;17.14;54.24;100785.88;5095918;28;1046;-48
2023/08/08 09:35:46;;;;;;;;;;;;;;;16.93;54.21;100774.91;5095773;28;1215;-52
2023/08/08 09:38:12;;;;;;;;;;;;;;;16.94;53.85;100770.22;5095905;28;1894;-55
2023/08/08 09:40:37;;;;;;;;;;;;;;;16.84;53.73;100778.44;5095894;28;1188;-55
2023/08/08 09:43:03;;;;;;;;;;;;;;;16.81;53.73;100776.25;5080040;28;1038;-54
2023/08/08 09:45:38;;;;;;;;;;;;;;;16.75;53.46;100778.19;5099562;28;1161;-54
2023/08/08 09:48:04;;;;;;;;;;;;;;;16.70;53.57;100778.16;5099833;28;1181;-54
2023/08/08 09:50:29;;;;;;;;;;;;;;;16.67;53.58;100775.97;5098730;28;1105;-54
2023/08/08 09:52:55;;;;;;;;;;;;;;;16.62;53.44;100773.22;5099497;28;1033;-53
2023/08/08 09:55:20;;;;;;;;;;;;;;;16.60;53.59;100768.81;5099043;28;1070;-54
2023/08/08 09:57:46;;;;;;;;;;;;;;;16.57;53.45;100763.06;5099532;28;1507;-53
2023/08/08 10:00:15;;;;;;;;;;;;;;;16.59;53.61;100763.59;5099189;28;1988;-53
2023/08/08 10:02:45;;;;;;;;;;;;;;;16.57;53.38;100765.81;5090388;28;1125;-55
2023/08/08 10:05:12;;;;;;;;;;;;;;;16.52;53.30;100763.91;5086195;28;1085;-54
2023/08/08 10:07:38;;;;;;;;;;;;;;;16.54;53.38;100772.66;5099594;28;1062;-51
2023/08/08 10:10:04;;;;;;;;;;;;;;;16.54;53.39;100763.63;5080878;28;1284;-52
2023/08/08 10:12:30;;;;;;;;;;;;;;;16.51;53.76;100762.25;5099043;28;1101;-50
2023/08/08 10:14:55;;;;;;;;;;;;;;;17.74;53.75;100766.72;5081392;28;1166;-50
2023/08/08 10:17:21;;;;;;;;;;;;;;;17.29;54.61;100768.50;5081046;28;1201;-53
2023/08/08 10:19:49;;;;;;;;;;;;;;;17.03;54.76;100773.25;5085918;28;1992;-51
2023/08/08 10:22:15;;;;;;;;;;;;;;;16.84;54.48;100771.03;5080918;28;1248;-56
2023/08/08 10:24:40;;;;;;;;;;;;;;;16.85;54.35;100767.19;5080629;28;1186;-50
2023/08/08 10:27:06;;;;;;;;;;;;;;;16.81;53.87;100759.78;5098156;28;1485;-53
2023/08/08 10:29:32;;;;;;;;;;;;;;;16.73;54.13;100759.22;5098961;28;1106;-52
2023/08/08 10:31:57;;;;;;;;;;;;;;;16.67;54.10;100759.50;5098690;28;1112;-51
2023/08/08 10:34:26;;;;;;;;;;;;;;;16.71;53.79;100771.59;5098560;28;1399;-49
2023/08/08 10:36:52;;;;;;;;;;;;;;;16.70;53.48;100791.91;5098647;28;1026;-52
2023/08/08 10:39:18;;;;;;;;;;;;;;;16.62;53.70;100793.28;5098429;28;1910;-52
2023/08/08 10:41:44;;;;;;;;;;;;;;;16.60;53.79;100793.53;5098665;28;1142;-50
2023/08/08 10:44:10;;;;;;;;;;;;;;;16.55;53.56;100799.03;5098830;28;1353;-50
2023/08/08 10:46:37;;;;;;;;;;;;;;;16.63;53.05;100794.91;5098435;28;1236;-55
2023/08/08 10:49:05;;;;;;;;;;;;;;;16.48;53.66;100814.09;5080536;28;1402;-48
2023/08/08 10:51:37;;;;;;;;;;;;;;;17.45;54.05;100796.81;5079846;28;1177;-49
2023/08/08 10:54:03;;;;;;;;;;;;;;;17.32;54.60;100802.88;5096538;28;1520;-52
2023/08/08 10:56:29;;;;;;;;;;;;;;;17.01;54.88;100811.16;5097892;28;1068;-50
2023/08/08 10:58:54;;;;;;;;;;;;;;;16.90;54.56;100802.94;5080098;28;1938;-53
2023/08/08 11:01:21;;;;;;;;;;;;;;;16.85;54.06;100799.31;5098139;28;1378;-58
2023/08/08 11:03:48;;;;;;;;;;;;;;;16.82;54.12;100806.19;5093353;28;1082;-55
2023/08/08 11:06:14;;;;;;;;;;;;;;;16.79;53.75;100798.50;5098305;28;1414;-52
2023/08/08 11:08:39;;;;;;;;;;;;;;;16.72;53.80;100807.00;5079895;28;1355;-56
2023/08/08 11:11:06;;;;;;;;;;;;;;;16.63;53.56;100797.66;5096948;28;1130;-51
2023/08/08 11:13:31;;;;;;;;;;;;;;;16.63;53.80;100797.66;5097655;28;1043;-54
2023/08/08 11:15:57;;;;;;;;;;;;;;;16.64;53.34;100803.97;5097420;28;895;-52
2023/08/08 11:18:22;;;;;;;;;;;;;;;16.60;53.38;100811.94;5096009;28;1913;-48
2023/08/08 11:20:48;;;;;;;;;;;;;;;16.56;53.30;100819.06;5097231;28;1507;-51
2023/08/08 11:23:14;;;;;;;;;;;;;;;16.54;53.38;100815.78;5097905;28;1038;-49
2023/08/08 11:25:40;;;;;;;;;;;;;;;16.56;53.12;100813.56;5097752;28;1034;-50
2023/08/08 11:28:05;;;;;;;;;;;;;;;16.52;53.18;100821.53;5097116;28;1078;-51
2023/08/08 11:30:32;;;;;;;;;;;;;;;16.52;53.32;100818.81;5097738;28;1102;-51
2023/08/08 11:32:57;;;;;;;;;;;;;;;16.48;53.46;100817.69;5079258;28;1101;-50
2023/08/08 11:35:24;;;;;;;;;;;;;;;16.95;53.99;100815.00;5097814;28;1142;-47
2023/08/08 11:37:52;;;;;;;;;;;;;;;17.58;54.11;100807.19;5096214;28;2201;-53
2023/08/08 11:40:18;;;;;;;;;;;;;;;17.07;54.72;100807.31;5077838;28;1940;-47
2023/08/08 11:42:45;;;;;;;;;;;;;;;16.91;54.66;100803.72;5078299;28;2117;-54
2023/08/08 11:45:10;;;;;;;;;;;;;;;16.84;54.50;100808.66;5096685;28;2066;-49
2023/08/08 11:47:37;;;;;;;;;;;;;;;16.79;54.37;100801.25;5090710;28;2098;-48
2023/08/08 11:50:04;;;;;;;;;;;;;;;16.72;54.21;100797.94;5095752;28;2181;-45
2023/08/08 11:52:30;;;;;;;;;;;;;;;16.72;53.90;100801.50;5096059;28;1764;-53
2023/08/08 11:54:55;;;;;;;;;;;;;;;16.70;53.79;100800.94;5096682;28;1125;-54
2023/08/08 11:57:21;;;;;;;;;;;;;;;16.73;53.62;100785.84;5096836;28;1204;-47
2023/08/08 11:59:49;;;;;;;;;;;;;;;16.64;53.76;100793.81;5096932;28;1914;-53
2023/08/08 12:02:14;;;;;;;;;;;;;;;16.65;53.80;100789.97;5096574;28;1323;-54
2023/08/08 12:04:43;;;;;;;;;;;;;;;16.61;53.68;100775.16;5096162;28;834;-55
2023/08/08 12:07:08;;;;;;;;;;;;;;;16.63;53.85;100769.38;5096505;28;1130;-56
2023/08/08 12:09:35;;;;;;;;;;;;;;;16.57;53.59;100761.13;5078327;28;1163;-53
2023/08/08 12:12:01;;;;;;;;;;;;;;;16.63;53.60;100775.69;5096527;28;1100;-55
2023/08/08 12:14:26;;;;;;;;;;;;;;;16.57;53.52;100765.81;5096587;28;1050;-52
2023/08/08 12:16:53;;;;;;;;;;;;;;;16.56;53.55;100755.94;5096339;28;891;-55
2023/08/08 12:19:22;;;;;;;;;;;;;;;16.52;53.71;100763.06;5096172;28;1917;-49
2023/08/08 12:21:47;;;;;;;;;;;;;;;16.57;53.54;100749.34;5091726;28;1784;-55
2023/08/08 12:24:13;;;;;;;;;;;;;;;16.51;53.65;100753.16;5078433;28;1130;-52
2023/08/08 12:26:38;;;;;;;;;;;;;;;16.57;53.28;100743.84;5095959;28;1073;-52
2023/08/08 12:29:04;;;;;;;;;;;;;;;17.32;54.15;100748.75;5096128;28;976;-57
2023/08/08 12:31:30;;;;;;;;;;;;;;;17.37;54.39;100750.63;5095946;28;1525;-54
2023/08/08 12:33:55;;;;;;;;;;;;;;;17.13;54.77;100743.00;5096075;28;1205;-54
2023/08/08 12:36:21;;;;;;;;;;;;;;;16.96;54.71;100729.56;5095541;28;1424;-52
2023/08/08 12:38:46;;;;;;;;;;;;;;;16.91;54.27;100735.06;5095604;28;1910;-52
2023/08/08 12:41:12;;;;;;;;;;;;;;;16.89;54.21;100731.78;5084089;28;963;-48